Darya Jyoti — VRGM9 — position and weather

sailwx.info

Track history (hours):
 
Tides and Currents Weather Stations Pressure Air Temp Water Temp Dewpoint Dewpoint Depression Visibility Wind Speed Wind Dir Waves Ship Positions

Darya Jyoti

Last reported at 2016-Nov-06 10:33 UTC. Time now 2016-Dec-05 04:34 UTC.
Position N 01°60' E 102°13'.
Warning: this ship's position is 28 days out of date.

Length 229 m; draft 14.6 m.

Type: Cargo ship. MMSI: 477742700.

Date/timePositionNaut miles runAvg speedWind from/ knotsBaromVisibWave heightAir tempDewpointWater temp
2016-Nov-06 10:33N 01°60' E 102°13'2512.3
2016-Nov-06 08:32N 01°48' E 102°34'1211.9
2016-Nov-06 07:31N 01°42' E 102°45'75 9.4
2016-Nov-05 23:34N 01°13' E 103°54'6 1.9
2016-Nov-05 20:21N 01°17' E 103°59'0 0.0
2016-Nov-05 10:32N 01°17' E 103°59'0 0.0
2016-Nov-05 09:33N 01°17' E 103°59'1 0.5
2016-Nov-05 08:33N 01°17' E 103°59'4 4.0
2016-Nov-05 07:27N 01°16' E 104°04'  
Track history (hours):
 
Tides and Currents Weather Stations Pressure Air Temp Water Temp Dewpoint Dewpoint Depression Visibility Wind Speed Wind Dir Waves Ship Positions

Darya Jyoti

Last reported at 2016-Nov-06 10:33 UTC. Time now 2016-Dec-05 04:34 UTC.
Position N 01°60' E 102°13'.
Warning: this ship's position is 28 days out of date.

Length 229 m; draft 14.6 m.

Type: Cargo ship. MMSI: 477742700.

Date/timePositionNaut miles runAvg speedWind from/ knotsBaromVisibWave heightAir tempDewpointWater temp
2016-Nov-06 10:33N 01°60' E 102°13'2512.3
2016-Nov-06 08:32N 01°48' E 102°34'1211.9
2016-Nov-06 07:31N 01°42' E 102°45'75 9.4
2016-Nov-05 23:34N 01°13' E 103°54'6 1.9
2016-Nov-05 20:21N 01°17' E 103°59'0 0.0
2016-Nov-05 10:32N 01°17' E 103°59'0 0.0
2016-Nov-05 09:33N 01°17' E 103°59'1 0.5
2016-Nov-05 08:33N 01°17' E 103°59'4 4.0
2016-Nov-05 07:27N 01°16' E 104°04'  

Dump ship's entire track history